Vega Philipp — CQID8 — position and weather

sailwx.info

Track history (hours):
 
Tides and Currents Weather Stations Pressure Air Temp Water Temp Dewpoint Dewpoint Depression Visibility Wind Speed Wind Dir Waves Ship Positions

Vega Philipp

Last reported at 2017-Nov-24 02:00 UTC. Time now 2017-Nov-24 02:24 UTC.
Position N 53°27' W 003°01'.

Length 155 m; draft 7.1 m.

Type: Cargo ship. MMSI: 255805932.

Date/timePositionNaut miles runAvg speedWind from/ knotsBaromVisibWave heightAir tempDewpointWater temp
2017-Nov-24 02:00N 53°27' W 003°01'4 7.8
2017-Nov-24 01:31N 53°30' W 003°06'5 9.2
2017-Nov-24 01:00N 53°31' W 003°13'712.8
2017-Nov-24 00:30N 53°31' W 003°24'713.2
2017-Nov-24 00:00N 53°31' W 003°35'713.6
2017-Nov-23 23:30N 53°30' W 003°46'  
2017-Nov-18 03:44N 54°20' W 005°17'515.0
2017-Nov-18 03:26N 54°25' W 005°17'714.8
2017-Nov-18 02:58N 54°31' W 005°19'714.3
2017-Nov-18 02:30N 54°38' W 005°19'713.8
2017-Nov-18 02:00N 54°45' W 005°20'913.7
2017-Nov-18 01:23N 54°53' W 005°22'4013.9
2017-Nov-17 22:30N 55°31' W 004°59'815.8
2017-Nov-17 22:00N 55°39' W 004°59'714.0
2017-Nov-17 21:31N 55°46' W 004°58'714.7
2017-Nov-17 21:00N 55°53' W 004°56'4 0.3
2017-Nov-17 08:30N 55°57' W 004°52'714.9
2017-Nov-17 08:00N 55°50' W 004°57'713.4
2017-Nov-17 07:31N 55°44' W 004°59'610.7
2017-Nov-17 06:58N 55°38' W 004°59'511.6
2017-Nov-17 06:30N 55°32' W 004°59'3814.5
2017-Nov-17 03:53N 54°56' W 005°19'616.3
2017-Nov-17 03:30N 54°50' W 005°15'816.7
2017-Nov-17 03:00N 54°43' W 005°09'816.7
2017-Nov-17 02:30N 54°35' W 005°05'816.3
2017-Nov-17 02:00N 54°27' W 005°02'7114.5
2017-Nov-16 21:05N 53°34' W 003°40'114.6
2017-Nov-16 21:00N 53°34' W 003°38'714.3
2017-Nov-16 20:30N 53°33' W 003°26'613.1
2017-Nov-16 20:00N 53°32' W 003°16'5 9.4
2017-Nov-16 19:30N 53°31' W 003°08'611.9
2017-Nov-16 19:00N 53°27' W 003°01'0 0.7
2017-Nov-16 18:25N 53°27' W 003°01'1 1.2
2017-Nov-16 17:58N 53°28' W 003°01'0 0.1
2017-Nov-16 17:28N 53°28' W 003°01'0 0.0
2017-Nov-16 16:58N 53°28' W 003°01'0 0.0
2017-Nov-16 16:28N 53°28' W 003°01'0 0.0
2017-Nov-16 15:58N 53°28' W 003°01'0 0.0
2017-Nov-16 15:28N 53°28' W 003°01'0 0.0
2017-Nov-16 14:58N 53°28' W 003°01'0 0.0
2017-Nov-16 14:25N 53°28' W 003°01'0 0.0
2017-Nov-16 13:58N 53°28' W 003°01'0 0.0
2017-Nov-16 13:28N 53°28' W 003°01'0 0.0
2017-Nov-16 12:58N 53°28' W 003°01'0 0.0
2017-Nov-16 12:28N 53°28' W 003°01'0 0.0
2017-Nov-16 11:58N 53°28' W 003°01'0 0.0
2017-Nov-16 11:28N 53°28' W 003°01'0 0.0
2017-Nov-16 10:58N 53°28' W 003°01'0 0.0
2017-Nov-16 10:28N 53°28' W 003°01'0 0.0
2017-Nov-16 09:55N 53°28' W 003°01'0 0.0
2017-Nov-16 09:28N 53°28' W 003°01'0 0.0
2017-Nov-16 08:58N 53°28' W 003°01'0 0.0
2017-Nov-16 08:25N 53°28' W 003°01'0 0.0
2017-Nov-16 08:00N 53°28' W 003°01'0 0.0
2017-Nov-16 07:30N 53°28' W 003°01'0 0.2
2017-Nov-16 07:00N 53°28' W 003°01'1 1.1
2017-Nov-16 06:30N 53°27' W 003°01'0 0.2
2017-Nov-16 06:00N 53°27' W 003°01'0 0.4
2017-Nov-16 05:30N 53°27' W 003°01'3 5.8
2017-Nov-16 05:00N 53°29' W 003°05'5 9.1
2017-Nov-16 04:30N 53°32' W 003°11'611.6
2017-Nov-16 04:00N 53°32' W 003°21'511.1
2017-Nov-16 03:30N 53°31' W 003°30'714.5
2017-Nov-16 03:00N 53°31' W 003°42'58613.5
2017-Nov-14 07:45N 43°46' W 003°18'415.7
2017-Nov-14 07:31N 43°42' W 003°16'815.7
2017-Nov-14 07:00N 43°35' W 003°12'815.7
2017-Nov-14 06:30N 43°28' W 003°08'714.1
2017-Nov-14 06:00N 43°22' W 003°03'1 2.1
2017-Nov-14 05:28N 43°21' W 003°03'0 0.0
2017-Nov-14 04:58N 43°21' W 003°03'0 0.0
2017-Nov-14 04:28N 43°21' W 003°03'0 0.0
2017-Nov-14 03:58N 43°21' W 003°03'0 0.0
2017-Nov-14 03:28N 43°21' W 003°03'0 0.0
2017-Nov-14 02:58N 43°21' W 003°03'0 0.0
2017-Nov-14 02:28N 43°21' W 003°03'  
Track history (hours):
 
Tides and Currents Weather Stations Pressure Air Temp Water Temp Dewpoint Dewpoint Depression Visibility Wind Speed Wind Dir Waves Ship Positions

Vega Philipp

Last reported at 2017-Nov-24 02:00 UTC. Time now 2017-Nov-24 02:24 UTC.
Position N 53°27' W 003°01'.

Length 155 m; draft 7.1 m.

Type: Cargo ship. MMSI: 255805932.

Date/timePositionNaut miles runAvg speedWind from/ knotsBaromVisibWave heightAir tempDewpointWater temp
2017-Nov-24 02:00N 53°27' W 003°01'4 7.8
2017-Nov-24 01:31N 53°30' W 003°06'5 9.2
2017-Nov-24 01:00N 53°31' W 003°13'712.8
2017-Nov-24 00:30N 53°31' W 003°24'713.2
2017-Nov-24 00:00N 53°31' W 003°35'713.6
2017-Nov-23 23:30N 53°30' W 003°46'  
2017-Nov-18 03:44N 54°20' W 005°17'515.0
2017-Nov-18 03:26N 54°25' W 005°17'714.8
2017-Nov-18 02:58N 54°31' W 005°19'714.3
2017-Nov-18 02:30N 54°38' W 005°19'713.8
2017-Nov-18 02:00N 54°45' W 005°20'913.7
2017-Nov-18 01:23N 54°53' W 005°22'4013.9
2017-Nov-17 22:30N 55°31' W 004°59'815.8
2017-Nov-17 22:00N 55°39' W 004°59'714.0
2017-Nov-17 21:31N 55°46' W 004°58'714.7
2017-Nov-17 21:00N 55°53' W 004°56'4 0.3
2017-Nov-17 08:30N 55°57' W 004°52'714.9
2017-Nov-17 08:00N 55°50' W 004°57'713.4
2017-Nov-17 07:31N 55°44' W 004°59'610.7
2017-Nov-17 06:58N 55°38' W 004°59'511.6
2017-Nov-17 06:30N 55°32' W 004°59'3814.5
2017-Nov-17 03:53N 54°56' W 005°19'616.3
2017-Nov-17 03:30N 54°50' W 005°15'816.7
2017-Nov-17 03:00N 54°43' W 005°09'816.7
2017-Nov-17 02:30N 54°35' W 005°05'816.3
2017-Nov-17 02:00N 54°27' W 005°02'7114.5
2017-Nov-16 21:05N 53°34' W 003°40'114.6
2017-Nov-16 21:00N 53°34' W 003°38'714.3
2017-Nov-16 20:30N 53°33' W 003°26'613.1
2017-Nov-16 20:00N 53°32' W 003°16'5 9.4
2017-Nov-16 19:30N 53°31' W 003°08'611.9
2017-Nov-16 19:00N 53°27' W 003°01'0 0.7
2017-Nov-16 18:25N 53°27' W 003°01'1 1.2
2017-Nov-16 17:58N 53°28' W 003°01'0 0.1
2017-Nov-16 17:28N 53°28' W 003°01'0 0.0
2017-Nov-16 16:58N 53°28' W 003°01'0 0.0
2017-Nov-16 16:28N 53°28' W 003°01'0 0.0
2017-Nov-16 15:58N 53°28' W 003°01'0 0.0
2017-Nov-16 15:28N 53°28' W 003°01'0 0.0
2017-Nov-16 14:58N 53°28' W 003°01'0 0.0
2017-Nov-16 14:25N 53°28' W 003°01'0 0.0
2017-Nov-16 13:58N 53°28' W 003°01'0 0.0
2017-Nov-16 13:28N 53°28' W 003°01'0 0.0
2017-Nov-16 12:58N 53°28' W 003°01'0 0.0
2017-Nov-16 12:28N 53°28' W 003°01'0 0.0
2017-Nov-16 11:58N 53°28' W 003°01'0 0.0
2017-Nov-16 11:28N 53°28' W 003°01'0 0.0
2017-Nov-16 10:58N 53°28' W 003°01'0 0.0
2017-Nov-16 10:28N 53°28' W 003°01'0 0.0
2017-Nov-16 09:55N 53°28' W 003°01'0 0.0
2017-Nov-16 09:28N 53°28' W 003°01'0 0.0
2017-Nov-16 08:58N 53°28' W 003°01'0 0.0
2017-Nov-16 08:25N 53°28' W 003°01'0 0.0
2017-Nov-16 08:00N 53°28' W 003°01'0 0.0
2017-Nov-16 07:30N 53°28' W 003°01'0 0.2
2017-Nov-16 07:00N 53°28' W 003°01'1 1.1
2017-Nov-16 06:30N 53°27' W 003°01'0 0.2
2017-Nov-16 06:00N 53°27' W 003°01'0 0.4
2017-Nov-16 05:30N 53°27' W 003°01'3 5.8
2017-Nov-16 05:00N 53°29' W 003°05'5 9.1
2017-Nov-16 04:30N 53°32' W 003°11'611.6
2017-Nov-16 04:00N 53°32' W 003°21'511.1
2017-Nov-16 03:30N 53°31' W 003°30'714.5
2017-Nov-16 03:00N 53°31' W 003°42'58613.5
2017-Nov-14 07:45N 43°46' W 003°18'415.7
2017-Nov-14 07:31N 43°42' W 003°16'815.7
2017-Nov-14 07:00N 43°35' W 003°12'815.7
2017-Nov-14 06:30N 43°28' W 003°08'714.1
2017-Nov-14 06:00N 43°22' W 003°03'1 2.1
2017-Nov-14 05:28N 43°21' W 003°03'0 0.0
2017-Nov-14 04:58N 43°21' W 003°03'0 0.0
2017-Nov-14 04:28N 43°21' W 003°03'0 0.0
2017-Nov-14 03:58N 43°21' W 003°03'0 0.0
2017-Nov-14 03:28N 43°21' W 003°03'0 0.0
2017-Nov-14 02:58N 43°21' W 003°03'0 0.0
2017-Nov-14 02:28N 43°21' W 003°03'  

Dump ship's entire track history